Time;durP1;ratioP1;P1;durP2;ratioP2;P2;SDS_P1;SDS_P2;PMS_P1;PMS_P2;Temp;Humidity;BMP_temperature;BMP_pressure;BME280_temperature;BME280_humidity;BME280_pressure;Samples;Min_cycle;Max_cycle;Signal;HPM_P1;HPM_P2
2021/10/05 00:00:00;;;;;;;19.25;14.10;;;14.90;99.90;;;;;;5081179;28;20521;-46
2021/10/05 00:02:27;;;;;;;18.55;13.93;;;14.80;99.90;;;;;;5081240;28;20226;-50
2021/10/05 00:04:55;;;;;;;21.70;18.33;;;14.80;99.90;;;;;;5078984;28;20203;-44
2021/10/05 00:07:22;;;;;;;25.02;18.20;;;14.90;99.90;;;;;;5077037;28;20195;-52
2021/10/05 00:09:49;;;;;;;22.75;16.45;;;14.90;99.90;;;;;;5080413;28;20265;-45
2021/10/05 00:12:17;;;;;;;22.38;15.95;;;14.90;99.90;;;;;;5079170;28;20456;-50
2021/10/05 00:14:45;;;;;;;22.73;17.70;;;14.90;99.90;;;;;;5078221;28;20536;-47
2021/10/05 00:17:12;;;;;;;17.13;14.13;;;14.80;99.90;;;;;;5081149;28;20229;-45
2021/10/05 00:19:40;;;;;;;18.33;15.32;;;14.70;99.90;;;;;;5081594;28;20417;-49
2021/10/05 00:22:07;;;;;;;19.58;15.15;;;14.60;99.90;;;;;;5079515;28;20284;-44
2021/10/05 00:24:34;;;;;;;19.92;15.70;;;14.60;99.90;;;;;;5081114;28;20490;-44
2021/10/05 00:27:01;;;;;;;17.88;14.70;;;14.50;99.90;;;;;;5077730;28;20195;-49
2021/10/05 00:29:28;;;;;;;23.73;16.90;;;14.60;99.90;;;;;;5080857;28;20195;-47
2021/10/05 00:31:55;;;;;;;24.60;16.42;;;14.60;99.90;;;;;;5079105;28;20215;-45
2021/10/05 00:34:23;;;;;;;20.75;16.75;;;14.50;99.90;;;;;;5077823;28;20233;-46
2021/10/05 00:36:50;;;;;;;23.92;18.10;;;14.20;99.90;;;;;;5080073;28;20260;-46
2021/10/05 00:39:18;;;;;;;21.80;16.88;;;14.00;99.90;;;;;;5080416;28;20187;-46
2021/10/05 00:41:45;;;;;;;21.90;17.88;;;14.10;99.90;;;;;;5080290;28;20240;-49
2021/10/05 00:44:12;;;;;;;30.92;17.85;;;14.30;99.90;;;;;;5079807;28;20268;-46
2021/10/05 00:46:39;;;;;;;32.30;22.00;;;14.20;99.90;;;;;;5080119;28;20219;-49
2021/10/05 00:49:06;;;;;;;39.60;23.42;;;14.20;99.90;;;;;;5079705;28;20202;-48
2021/10/05 00:51:33;;;;;;;33.90;25.40;;;14.30;99.90;;;;;;5077846;28;20261;-50
2021/10/05 00:54:01;;;;;;;36.38;25.08;;;14.10;99.90;;;;;;5079740;28;20198;-44
2021/10/05 00:56:28;;;;;;;31.85;23.90;;;14.00;99.90;;;;;;5080153;28;20560;-48
2021/10/05 00:58:55;;;;;;;35.35;24.55;;;14.20;99.90;;;;;;5079542;28;20199;-45
2021/10/05 01:01:22;;;;;;;38.05;23.70;;;14.50;99.90;;;;;;5077044;28;20199;-47
2021/10/05 01:03:50;;;;;;;31.23;23.00;;;14.50;99.90;;;;;;5079433;28;20455;-44
2021/10/05 01:06:17;;;;;;;32.35;24.67;;;14.40;99.90;;;;;;5077138;28;20250;-46
2021/10/05 01:08:46;;;;;;;44.67;29.17;;;14.40;99.90;;;;;;5079904;28;20195;-45
2021/10/05 01:11:13;;;;;;;33.45;25.30;;;14.10;99.90;;;;;;5077767;28;20424;-47
2021/10/05 01:13:40;;;;;;;37.20;26.40;;;13.80;99.90;;;;;;5079961;28;20557;-46
2021/10/05 01:16:07;;;;;;;44.05;30.38;;;13.80;99.90;;;;;;5077539;28;20210;-47
2021/10/05 01:18:35;;;;;;;38.92;29.30;;;13.80;99.90;;;;;;5078893;28;20501;-44
2021/10/05 01:21:08;;;;;;;37.80;28.13;;;13.90;99.90;;;;;;5078964;28;20199;-47
2021/10/05 01:23:37;;;;;;;39.85;28.80;;;14.00;99.90;;;;;;5078698;28;20578;-45
2021/10/05 01:26:04;;;;;;;40.15;29.40;;;14.10;99.90;;;;;;5078609;28;20198;-45
2021/10/05 01:28:32;;;;;;;42.33;29.45;;;14.00;99.90;;;;;;5079121;28;20501;-46
2021/10/05 01:30:59;;;;;;;42.03;27.30;;;14.00;99.90;;;;;;5078219;28;20501;-46
2021/10/05 01:33:28;;;;;;;44.85;28.33;;;14.00;99.90;;;;;;5077660;28;20409;-51
2021/10/05 01:35:56;;;;;;;46.70;28.48;;;14.00;99.90;;;;;;5078053;28;20199;-47
2021/10/05 01:38:23;;;;;;;40.35;27.15;;;13.80;99.90;;;;;;5076410;28;20199;-50
2021/10/05 01:40:50;;;;;;;43.20;30.58;;;13.70;99.90;;;;;;5079426;28;20317;-51
2021/10/05 01:43:18;;;;;;;37.20;27.17;;;13.80;99.90;;;;;;5077337;28;20659;-44
2021/10/05 01:45:46;;;;;;;42.15;28.73;;;13.90;99.90;;;;;;5079132;28;20203;-51
2021/10/05 01:48:13;;;;;;;34.42;27.33;;;13.90;99.90;;;;;;5078247;28;20205;-46
2021/10/05 01:50:40;;;;;;;35.13;25.95;;;14.10;99.90;;;;;;5078561;28;20195;-50
2021/10/05 01:53:07;;;;;;;44.13;25.42;;;14.20;99.90;;;;;;5077822;28;20331;-45
2021/10/05 01:55:34;;;;;;;36.22;26.95;;;14.20;99.90;;;;;;5078513;28;20214;-46
2021/10/05 01:58:02;;;;;;;41.20;27.30;;;14.10;99.90;;;;;;5059895;28;20317;-50
2021/10/05 02:00:29;;;;;;;44.75;28.40;;;14.10;99.90;;;;;;5078242;28;20390;-47
2021/10/05 02:02:56;;;;;;;32.58;26.48;;;14.20;99.90;;;;;;5078216;28;20294;-48
2021/10/05 02:05:24;;;;;;;35.75;27.08;;;14.20;99.90;;;;;;5076246;28;20198;-46
2021/10/05 02:07:51;;;;;;;32.20;24.48;;;14.40;99.90;;;;;;5078350;28;20544;-47
2021/10/05 02:10:18;;;;;;;35.97;26.20;;;14.20;99.90;;;;;;5077032;28;20191;-50
2021/10/05 02:12:45;;;;;;;34.80;27.20;;;13.90;99.90;;;;;;5077609;28;20328;-52
2021/10/05 02:15:13;;;;;;;39.30;28.48;;;13.80;99.90;;;;;;5076014;28;20248;-44
2021/10/05 02:17:40;;;;;;;42.75;30.70;;;13.50;99.90;;;;;;5077692;28;20245;-48
2021/10/05 02:20:08;;;;;;;46.90;31.83;;;13.40;99.90;;;;;;5077838;28;20210;-46
2021/10/05 02:22:36;;;;;;;48.13;30.70;;;13.50;99.90;;;;;;5077874;28;20586;-44
2021/10/05 02:25:04;;;;;;;47.25;29.70;;;13.50;99.90;;;;;;5075425;28;20289;-44
2021/10/05 02:27:31;;;;;;;52.75;34.67;;;13.40;99.90;;;;;;5079935;28;20207;-46
2021/10/05 02:29:59;;;;;;;45.88;30.88;;;13.30;99.90;;;;;;5077817;28;20498;-50
2021/10/05 02:32:26;;;;;;;41.78;27.58;;;13.20;99.90;;;;;;5077737;28;20214;-45
2021/10/05 02:34:54;;;;;;;61.10;35.05;;;13.30;99.90;;;;;;5077928;28;20195;-47
2021/10/05 02:37:21;;;;;;;50.15;33.78;;;13.30;99.90;;;;;;5078134;28;20195;-49
2021/10/05 02:39:49;;;;;;;51.05;34.55;;;13.20;99.90;;;;;;5078975;28;20563;-45
2021/10/05 02:42:21;;;;;;;48.15;33.13;;;13.20;99.90;;;;;;5077683;28;20229;-47
2021/10/05 02:44:48;;;;;;;47.30;30.42;;;13.20;99.90;;;;;;5078455;28;20223;-45
2021/10/05 02:47:15;;;;;;;49.47;32.13;;;13.20;99.90;;;;;;5073531;28;20195;-45
2021/10/05 02:49:45;;;;;;;51.72;30.98;;;13.10;99.90;;;;;;5077960;28;20239;-51
2021/10/05 02:52:21;;;;;;;45.53;32.47;;;13.00;99.90;;;;;;5075122;28;20468;-49
2021/10/05 02:54:49;;;;;;;40.75;32.42;;;12.90;99.90;;;;;;5077633;28;20216;-49
2021/10/05 02:57:19;;;;;;;43.22;31.27;;;13.00;99.90;;;;;;5080694;28;20199;-48
2021/10/05 02:59:47;;;;;;;41.00;30.90;;;12.90;99.90;;;;;;5081167;28;20236;-48
2021/10/05 03:02:16;;;;;;;51.25;34.97;;;12.80;99.90;;;;;;5080227;28;20248;-46
2021/10/05 03:04:43;;;;;;;49.58;32.15;;;12.80;99.90;;;;;;5079741;28;20230;-52
2021/10/05 03:07:11;;;;;;;48.95;29.83;;;12.80;99.90;;;;;;5079359;28;20201;-51
2021/10/05 03:09:38;;;;;;;44.13;31.88;;;12.80;99.90;;;;;;5080849;28;20240;-51
2021/10/05 03:12:06;;;;;;;45.55;32.78;;;12.80;99.90;;;;;;5080108;28;20264;-45
2021/10/05 03:14:33;;;;;;;47.35;31.02;;;12.80;99.90;;;;;;5080334;28;20513;-46
2021/10/05 03:17:00;;;;;;;53.75;35.38;;;12.90;99.90;;;;;;5080285;28;20199;-51
2021/10/05 03:19:27;;;;;;;50.45;34.03;;;13.00;99.90;;;;;;5080924;28;20236;-46
2021/10/05 03:21:56;;;;;;;53.40;33.88;;;13.00;99.90;;;;;;5081062;28;20219;-48
2021/10/05 03:24:25;;;;;;;53.13;34.33;;;13.10;99.90;;;;;;5084213;28;20223;-53
2021/10/05 03:26:53;;;;;;;64.57;37.08;;;13.00;99.90;;;;;;5085464;28;20367;-51
2021/10/05 03:29:19;;;;;;;51.35;34.72;;;13.10;99.90;;;;;;5085066;28;20374;-46
2021/10/05 03:31:47;;;;;;;59.50;34.85;;;13.10;99.90;;;;;;5081721;28;20195;-43
2021/10/05 03:34:14;;;;;;;46.38;29.40;;;13.10;99.90;;;;;;5079563;28;20511;-44
2021/10/05 03:36:42;;;;;;;45.67;29.33;;;13.00;99.90;;;;;;5080413;28;20206;-50
2021/10/05 03:39:09;;;;;;;48.95;29.38;;;12.90;99.90;;;;;;5079933;28;20203;-46
2021/10/05 03:41:36;;;;;;;47.40;29.75;;;13.00;99.90;;;;;;5080794;28;20240;-50
2021/10/05 03:44:03;;;;;;;48.88;30.85;;;12.70;99.90;;;;;;5079364;28;20267;-50
2021/10/05 03:46:31;;;;;;;48.05;29.88;;;12.70;99.90;;;;;;5080621;28;20198;-49
2021/10/05 03:48:58;;;;;;;43.72;27.85;;;12.70;99.90;;;;;;5079314;28;20236;-49
2021/10/05 03:51:25;;;;;;;45.97;29.38;;;12.70;99.90;;;;;;5078252;28;20194;-47
2021/10/05 03:53:52;;;;;;;47.30;30.92;;;12.60;99.90;;;;;;5079130;28;20433;-47
2021/10/05 03:56:19;;;;;;;42.40;30.58;;;12.60;99.90;;;;;;5079386;28;20232;-47
2021/10/05 03:58:46;;;;;;;42.33;29.17;;;12.50;99.90;;;;;;5079741;28;20548;-48
2021/10/05 04:01:13;;;;;;;42.45;26.90;;;12.40;99.90;;;;;;5077832;28;20561;-45
2021/10/05 04:03:41;;;;;;;47.92;29.92;;;12.40;99.90;;;;;;5069279;28;20555;-47
2021/10/05 04:06:09;;;;;;;41.20;28.38;;;12.40;99.90;;;;;;5068400;28;20249;-52
2021/10/05 04:08:37;;;;;;;42.58;29.50;;;12.40;99.90;;;;;;5063903;28;20206;-48
2021/10/05 04:11:05;;;;;;;47.80;29.90;;;12.40;99.90;;;;;;5074109;28;20255;-46
2021/10/05 04:13:33;;;;;;;35.70;26.60;;;12.50;99.90;;;;;;5066333;28;20281;-49
2021/10/05 04:16:00;;;;;;;42.83;30.48;;;12.30;99.90;;;;;;5071111;28;20202;-46
2021/10/05 04:18:27;;;;;;;52.90;29.17;;;12.30;99.90;;;;;;5074803;28;20238;-46
2021/10/05 04:20:54;;;;;;;40.22;29.42;;;12.30;99.90;;;;;;5072291;28;20203;-46
2021/10/05 04:23:22;;;;;;;51.75;31.73;;;12.30;99.90;;;;;;5078616;28;20860;-45
2021/10/05 04:25:49;;;;;;;50.03;28.40;;;12.20;99.90;;;;;;5075424;28;20206;-44
2021/10/05 04:28:16;;;;;;;50.20;27.05;;;12.20;99.90;;;;;;5065390;28;20206;-47
2021/10/05 04:30:43;;;;;;;54.30;30.83;;;12.20;99.90;;;;;;5077900;28;20244;-44
2021/10/05 04:33:11;;;;;;;53.47;33.53;;;12.10;99.90;;;;;;5078579;28;20267;-44
2021/10/05 04:35:38;;;;;;;55.20;32.33;;;12.10;99.90;;;;;;5081920;28;20212;-46
2021/10/05 04:38:06;;;;;;;56.08;28.60;;;12.10;99.90;;;;;;5081628;28;20255;-44
2021/10/05 04:40:33;;;;;;;65.25;35.35;;;12.00;99.90;;;;;;5075851;28;20199;-48
2021/10/05 04:43:01;;;;;;;56.45;33.70;;;12.10;99.90;;;;;;5063495;28;20541;-52
2021/10/05 04:45:28;;;;;;;56.88;30.75;;;12.00;99.90;;;;;;5079480;28;20252;-48
2021/10/05 04:47:55;;;;;;;52.00;35.60;;;11.90;99.90;;;;;;5066339;28;20524;-51
2021/10/05 04:50:22;;;;;;;66.68;34.67;;;12.00;99.90;;;;;;5069714;28;20566;-50
2021/10/05 04:52:50;;;;;;;63.92;37.83;;;12.00;99.90;;;;;;5077405;28;20218;-51
2021/10/05 04:55:17;;;;;;;70.95;36.53;;;12.00;99.90;;;;;;5070750;28;20248;-44
2021/10/05 04:57:44;;;;;;;69.95;36.10;;;12.10;99.90;;;;;;5082665;28;20194;-48
2021/10/05 05:00:12;;;;;;;62.95;34.28;;;12.10;99.90;;;;;;5070043;28;20374;-46
2021/10/05 05:02:39;;;;;;;53.22;36.28;;;12.10;99.90;;;;;;5080378;28;20226;-45
2021/10/05 05:05:07;;;;;;;68.53;36.38;;;12.10;99.90;;;;;;5068109;28;20230;-49
2021/10/05 05:07:34;;;;;;;51.95;35.17;;;12.10;99.90;;;;;;5073552;28;20513;-45
2021/10/05 05:10:04;;;;;;;71.32;39.17;;;12.00;99.90;;;;;;5066942;28;20199;-43
2021/10/05 05:12:31;;;;;;;59.47;38.55;;;12.10;99.90;;;;;;5066386;28;20476;-49
2021/10/05 05:15:00;;;;;;;67.97;39.20;;;12.10;99.90;;;;;;5065640;28;20214;-49
2021/10/05 05:17:27;;;;;;;69.38;38.67;;;12.10;99.90;;;;;;5067205;28;20206;-48
2021/10/05 05:19:54;;;;;;;49.25;33.83;;;12.10;99.90;;;;;;5079579;28;20400;-52
2021/10/05 05:22:21;;;;;;;56.70;35.63;;;12.10;99.90;;;;;;5072776;28;20219;-46
2021/10/05 05:24:48;;;;;;;46.75;36.70;;;12.10;99.90;;;;;;5066412;28;20276;-49
2021/10/05 05:27:15;;;;;;;60.72;35.33;;;12.10;99.90;;;;;;5070770;28;20203;-46
2021/10/05 05:29:42;;;;;;;52.00;33.63;;;12.10;99.90;;;;;;5073812;28;20261;-50
2021/10/05 05:32:09;;;;;;;59.90;37.40;;;12.10;99.90;;;;;;5068571;28;20222;-44
2021/10/05 05:34:37;;;;;;;44.42;34.78;;;12.10;99.90;;;;;;5078853;28;20198;-50
2021/10/05 05:37:06;;;;;;;50.55;35.15;;;12.10;99.90;;;;;;5060266;28;20206;-46
2021/10/05 05:39:34;;;;;;;48.90;36.22;;;12.10;99.90;;;;;;5071201;28;20202;-50
2021/10/05 05:42:01;;;;;;;59.95;37.80;;;12.20;99.90;;;;;;5063993;28;20238;-45
2021/10/05 05:44:28;;;;;;;49.35;33.72;;;12.20;99.90;;;;;;5070722;28;20230;-48
2021/10/05 05:46:55;;;;;;;57.45;36.97;;;12.20;99.90;;;;;;5071061;28;20218;-45
2021/10/05 05:49:22;;;;;;;50.00;37.70;;;12.10;99.90;;;;;;5064527;28;20199;-47
2021/10/05 05:51:49;;;;;;;49.25;34.70;;;12.30;99.90;;;;;;5066197;28;20196;-44
2021/10/05 05:54:17;;;;;;;47.13;34.08;;;12.30;99.90;;;;;;5063672;28;20262;-47
2021/10/05 05:56:43;;;;;;;53.58;35.50;;;12.40;99.90;;;;;;5072942;28;20248;-45
2021/10/05 05:59:12;;;;;;;46.88;33.53;;;12.50;99.90;;;;;;5054022;28;20282;-47
2021/10/05 06:01:39;;;;;;;47.00;32.25;;;12.50;99.90;;;;;;5071302;28;20201;-51
2021/10/05 06:04:07;;;;;;;52.80;34.80;;;12.70;99.90;;;;;;5075598;28;20221;-47
2021/10/05 06:06:34;;;;;;;40.55;32.85;;;12.60;99.90;;;;;;5059746;28;20316;-48
2021/10/05 06:09:03;;;;;;;49.47;32.38;;;12.70;99.90;;;;;;5068401;28;20195;-45
2021/10/05 06:11:37;;;;;;;42.17;30.73;;;12.90;99.90;;;;;;5076556;28;20194;-49
2021/10/05 06:14:05;;;;;;;35.78;28.73;;;13.10;99.90;;;;;;5069162;28;20469;-45
2021/10/05 06:16:32;;;;;;;34.47;28.25;;;13.40;99.90;;;;;;5062294;28;20498;-51
2021/10/05 06:18:59;;;;;;;27.83;23.67;;;13.70;99.90;;;;;;5046722;28;20199;-45
2021/10/05 06:21:26;;;;;;;27.60;22.38;;;13.90;99.90;;;;;;5073401;28;20428;-49
2021/10/05 06:23:53;;;;;;;31.52;22.73;;;14.20;99.90;;;;;;5078152;28;20280;-45
2021/10/05 06:26:21;;;;;;;27.98;21.98;;;14.50;99.90;;;;;;5074838;28;20197;-48
2021/10/05 06:28:48;;;;;;;24.33;21.73;;;14.70;99.90;;;;;;5071097;28;20245;-49
2021/10/05 06:31:16;;;;;;;26.98;19.10;;;14.60;99.90;;;;;;5066146;28;20417;-47
2021/10/05 06:33:43;;;;;;;24.13;21.45;;;14.80;99.90;;;;;;5077902;28;20296;-46
2021/10/05 06:36:10;;;;;;;24.77;21.60;;;14.90;99.90;;;;;;5072754;28;20200;-52
2021/10/05 06:38:37;;;;;;;24.25;21.40;;;14.90;99.90;;;;;;5077661;28;20247;-49
2021/10/05 06:41:04;;;;;;;24.58;21.70;;;15.00;99.90;;;;;;5045819;28;20206;-48
2021/10/05 06:43:31;;;;;;;27.77;20.27;;;15.40;99.90;;;;;;5074938;28;20214;-47
2021/10/05 06:45:59;;;;;;;23.73;20.70;;;15.90;99.90;;;;;;5072963;28;20436;-46
2021/10/05 06:48:26;;;;;;;25.48;19.90;;;16.50;99.90;;;;;;5065659;28;20638;-48
2021/10/05 06:50:54;;;;;;;25.47;20.33;;;16.30;99.90;;;;;;5083522;28;20200;-54
2021/10/05 06:53:21;;;;;;;24.40;19.50;;;16.20;99.90;;;;;;5064217;28;20543;-51
2021/10/05 06:55:50;;;;;;;26.03;21.13;;;16.20;99.90;;;;;;5082382;28;20773;-47
2021/10/05 06:58:17;;;;;;;20.50;18.47;;;16.30;99.90;;;;;;5064513;28;20443;-45
2021/10/05 07:00:45;;;;;;;24.37;19.40;;;16.50;99.90;;;;;;5068762;28;20445;-52
2021/10/05 07:03:12;;;;;;;25.53;19.23;;;16.60;99.90;;;;;;5080384;28;20437;-46
2021/10/05 07:05:40;;;;;;;28.10;19.70;;;16.40;99.90;;;;;;5066870;28;20453;-49
2021/10/05 07:08:08;;;;;;;23.17;20.00;;;16.50;99.90;;;;;;5071501;28;20411;-49
2021/10/05 07:10:37;;;;;;;21.23;17.90;;;16.70;99.90;;;;;;5064801;28;20655;-46
2021/10/05 07:13:05;;;;;;;26.00;18.80;;;16.80;99.90;;;;;;5080416;28;20510;-52
2021/10/05 07:15:33;;;;;;;22.40;17.90;;;17.30;99.90;;;;;;5077136;28;20490;-47
2021/10/05 07:18:00;;;;;;;21.93;17.97;;;18.20;99.90;;;;;;5068563;28;20412;-49
2021/10/05 07:20:29;;;;;;;22.07;17.43;;;19.10;99.90;;;;;;5083137;28;20410;-51
2021/10/05 07:22:58;;;;;;;19.53;15.73;;;20.00;99.90;;;;;;5078350;28;20426;-55
2021/10/05 07:25:29;;;;;;;15.53;13.97;;;21.10;99.90;;;;;;5066623;28;20495;-54
2021/10/05 07:27:57;;;;;;;17.20;15.33;;;22.40;99.90;;;;;;5067702;28;20430;-50
2021/10/05 07:30:25;;;;;;;17.80;14.20;;;22.50;99.90;;;;;;5072436;28;20808;-46
2021/10/05 07:32:55;;;;;;;17.07;12.90;;;22.50;99.90;;;;;;5074511;28;20786;-46
2021/10/05 07:35:24;;;;;;;21.83;15.53;;;23.40;99.90;;;;;;5078187;28;20555;-48
2021/10/05 07:37:52;;;;;;;20.67;15.10;;;23.60;99.90;;;;;;5066202;28;20502;-49
2021/10/05 07:40:23;;;;;;;18.13;14.93;;;24.00;99.90;;;;;;5062565;28;20436;-46
2021/10/05 07:42:53;;;;;;;15.10;13.10;;;24.00;99.90;;;;;;5054758;28;20451;-45
2021/10/05 07:45:21;;;;;;;15.87;14.20;;;24.10;99.90;;;;;;5082236;28;20475;-48
2021/10/05 07:47:49;;;;;;;17.10;13.33;;;24.20;99.90;;;;;;5068645;28;20437;-51
2021/10/05 07:50:16;;;;;;;19.33;13.63;;;24.20;99.90;;;;;;5067607;28;20558;-46
2021/10/05 07:52:43;;;;;;;18.90;12.27;;;24.40;99.90;;;;;;5075079;28;20448;-51
2021/10/05 07:55:10;;;;;;;14.97;13.43;;;24.70;99.90;;;;;;5065537;28;20592;-54
2021/10/05 07:57:39;;;;;;;15.00;13.30;;;25.00;99.90;;;;;;5063006;28;20437;-52
2021/10/05 08:00:07;;;;;;;19.40;14.53;;;24.60;99.90;;;;;;5064738;28;20767;-48
2021/10/05 08:02:35;;;;;;;17.20;13.70;;;24.30;99.90;;;;;;5072178;28;20773;-49
2021/10/05 08:05:03;;;;;;;13.50;12.00;;;24.20;99.90;;;;;;5082259;28;20468;-51
2021/10/05 08:07:30;;;;;;;15.53;13.73;;;24.60;99.90;;;;;;5082363;28;20681;-52
2021/10/05 08:09:58;;;;;;;15.50;12.83;;;25.20;99.90;;;;;;5073323;28;20442;-50
2021/10/05 08:12:25;;;;;;;12.87;11.60;;;25.30;99.90;;;;;;5077500;28;20467;-45
2021/10/05 08:14:53;;;;;;;15.10;13.63;;;25.20;99.90;;;;;;5065930;28;20475;-48
2021/10/05 08:17:20;;;;;;;12.57;11.43;;;25.60;99.90;;;;;;5064573;28;20440;-44
2021/10/05 08:19:47;;;;;;;15.30;11.60;;;25.00;99.90;;;;;;5080009;28;20581;-52
2021/10/05 08:22:16;;;;;;;13.83;12.30;;;25.10;99.90;;;;;;5070891;28;20829;-45
2021/10/05 08:24:43;;;;;;;13.83;12.53;;;25.10;99.90;;;;;;5074838;28;20479;-49
2021/10/05 08:27:10;;;;;;;17.23;11.47;;;24.80;99.90;;;;;;5074618;28;20689;-52
2021/10/05 08:29:39;;;;;;;11.00;9.90;;;24.50;99.90;;;;;;5073746;28;20433;-50
2021/10/05 08:32:08;;;;;;;12.50;11.23;;;24.70;99.90;;;;;;5076678;28;20464;-49
2021/10/05 08:34:36;;;;;;;11.77;10.77;;;25.30;99.90;;;;;;5079878;28;20446;-44
2021/10/05 08:37:04;;;;;;;18.70;12.50;;;25.40;99.90;;;;;;5045471;28;20475;-47
2021/10/05 08:39:31;;;;;;;13.37;10.17;;;25.70;99.90;;;;;;5061582;28;20443;-46
2021/10/05 08:41:59;;;;;;;13.03;10.53;;;25.50;99.90;;;;;;5066250;28;20497;-43
2021/10/05 08:44:26;;;;;;;11.80;10.60;;;25.70;99.90;;;;;;5071188;28;20475;-44
2021/10/05 08:46:54;;;;;;;11.50;9.83;;;25.90;99.90;;;;;;5067324;28;20437;-44
2021/10/05 08:49:23;;;;;;;11.40;9.70;;;25.10;99.90;;;;;;5073167;28;20463;-47
2021/10/05 08:51:51;;;;;;;11.03;10.03;;;25.00;99.90;;;;;;5067475;28;20611;-44
2021/10/05 08:54:19;;;;;;;10.00;9.10;;;25.00;99.90;;;;;;5063437;28;20437;-48
2021/10/05 08:56:47;;;;;;;12.70;9.60;;;25.50;99.90;;;;;;5073398;28;20491;-47
2021/10/05 08:59:15;;;;;;;10.93;10.03;;;25.40;99.90;;;;;;5063203;28;20504;-52
2021/10/05 09:01:42;;;;;;;10.30;9.50;;;25.60;99.90;;;;;;5073096;28;20496;-45
2021/10/05 09:04:10;;;;;;;11.23;10.10;;;25.70;99.90;;;;;;5071903;28;20632;-44
2021/10/05 09:06:38;;;;;;;12.60;10.20;;;25.70;99.90;;;;;;5070781;28;20463;-49
2021/10/05 09:09:05;;;;;;;14.20;9.33;;;25.00;99.90;;;;;;5066852;28;20437;-49
2021/10/05 09:11:47;;;;;;;11.53;10.43;;;24.40;99.90;;;;;;5069476;28;20431;-45
2021/10/05 09:14:15;;;;;;;9.30;8.60;;;23.30;99.90;;;;;;5065648;28;20471;-46
2021/10/05 09:16:43;;;;;;;10.60;9.70;;;22.80;99.90;;;;;;5073959;28;20711;-51
2021/10/05 09:19:16;;;;;;;11.23;9.83;;;22.50;99.90;;;;;;5065184;28;20432;-46
2021/10/05 09:21:50;;;;;;;10.93;9.23;;;22.30;99.90;;;;;;5073077;28;20771;-51
2021/10/05 09:24:28;;;;;;;9.70;8.80;;;22.50;99.90;;;;;;5068991;28;20436;-45
2021/10/05 09:26:59;;;;;;;8.13;7.43;;;22.50;99.90;;;;;;5073914;28;20513;-47
2021/10/05 09:29:28;;;;;;;11.37;8.20;;;22.50;99.90;;;;;;5078861;28;20654;-48
2021/10/05 09:32:10;;;;;;;8.63;7.90;;;22.50;99.90;;;;;;5070580;28;20781;-52
2021/10/05 09:34:56;;;;;;;9.90;9.00;;;22.50;99.90;;;;;;5078713;28;20621;-52
2021/10/05 09:37:29;;;;;;;9.70;8.70;;;22.40;99.90;;;;;;5064038;28;20458;-44
2021/10/05 09:40:01;;;;;;;8.67;7.97;;;22.40;99.90;;;;;;5066918;28;20439;-46
2021/10/05 09:42:32;;;;;;;7.67;6.93;;;22.50;99.90;;;;;;5075029;28;20521;-48
2021/10/05 09:45:05;;;;;;;8.80;7.90;;;22.60;99.90;;;;;;5064715;28;20546;-50
2021/10/05 09:47:47;;;;;;;9.87;8.73;;;22.70;99.90;;;;;;5068051;28;20448;-46
2021/10/05 09:50:24;;;;;;;9.10;7.60;;;22.70;99.90;;;;;;5069283;28;20562;-49
2021/10/05 09:52:54;;;;;;;8.07;7.37;;;22.70;99.90;;;;;;5071658;28;20498;-45
2021/10/05 09:55:24;;;;;;;9.17;8.40;;;22.70;99.90;;;;;;5064762;28;20472;-51
2021/10/05 09:57:52;;;;;;;7.73;6.97;;;22.80;99.90;;;;;;5046973;28;20437;-45
2021/10/05 10:00:23;;;;;;;16.33;8.63;;;22.90;99.90;;;;;;5063136;28;20475;-44
2021/10/05 10:02:51;;;;;;;8.80;8.00;;;23.10;99.90;;;;;;5070878;28;20474;-50
2021/10/05 10:05:21;;;;;;;11.50;7.73;;;23.10;99.90;;;;;;5067735;28;20483;-48
2021/10/05 10:07:51;;;;;;;8.10;7.40;;;23.10;99.90;;;;;;5065881;28;20739;-48
2021/10/05 10:10:28;;;;;;;8.20;7.40;;;23.00;99.90;;;;;;5059655;28;20436;-47
2021/10/05 10:13:02;;;;;;;7.50;6.80;;;23.10;99.90;;;;;;5065073;28;20629;-48
2021/10/05 10:15:32;;;;;;;8.00;7.40;;;23.10;99.90;;;;;;5059885;28;20407;-48
2021/10/05 10:18:26;;;;;;;10.63;8.20;;;23.30;99.90;;;;;;5061998;28;20432;-45
2021/10/05 10:21:08;;;;;;;8.50;7.63;;;23.30;99.90;;;;;;5058922;28;20453;-49
2021/10/05 10:23:38;;;;;;;7.93;7.13;;;23.30;99.90;;;;;;5072140;28;20682;-45
2021/10/05 10:26:08;;;;;;;10.20;7.63;;;23.40;99.90;;;;;;5066620;28;20903;-43
2021/10/05 10:28:41;;;;;;;7.30;6.70;;;23.50;99.90;;;;;;5070988;28;20432;-47
2021/10/05 10:31:11;;;;;;;10.67;7.90;;;23.70;99.90;;;;;;5065318;28;20474;-48
2021/10/05 10:33:46;;;;;;;6.80;6.30;;;23.60;99.90;;;;;;5073898;28;20471;-48
2021/10/05 10:36:15;;;;;;;7.90;7.30;;;23.60;99.90;;;;;;5067248;28;20432;-47
2021/10/05 10:38:45;;;;;;;7.43;6.77;;;23.70;99.90;;;;;;5066957;28;20439;-49
2021/10/05 10:41:19;;;;;;;7.83;7.23;;;23.70;99.90;;;;;;5067848;28;20440;-49
2021/10/05 10:44:07;;;;;;;7.53;6.70;;;23.70;99.90;;;;;;5065351;28;20505;-49
2021/10/05 10:46:36;;;;;;;7.53;6.90;;;23.70;99.90;;;;;;5073372;28;20480;-46
2021/10/05 10:49:12;;;;;;;7.60;6.90;;;23.70;99.90;;;;;;5066355;28;20421;-50
2021/10/05 10:51:41;;;;;;;7.50;6.80;;;23.90;99.90;;;;;;5065889;28;20470;-54
2021/10/05 10:54:19;;;;;;;7.57;7.03;;;24.10;99.90;;;;;;5072165;28;20801;-46
2021/10/05 10:56:57;;;;;;;7.93;7.30;;;24.10;99.90;;;;;;5065390;28;20432;-46
2021/10/05 10:59:26;;;;;;;8.43;7.57;;;24.10;99.90;;;;;;5066203;28;20432;-46
2021/10/05 11:01:58;;;;;;;8.87;7.73;;;24.20;99.90;;;;;;5065908;28;20460;-45
2021/10/05 11:04:26;;;;;;;8.40;7.67;;;24.20;99.90;;;;;;5065232;28;20681;-49
2021/10/05 11:06:56;;;;;;;6.83;6.33;;;24.20;99.90;;;;;;5071107;28;20506;-47
2021/10/05 11:09:35;;;;;;;6.93;6.43;;;24.40;99.90;;;;;;5064028;28;20428;-46
2021/10/05 11:12:09;;;;;;;8.13;7.50;;;24.40;99.90;;;;;;5069276;28;20465;-47
2021/10/05 11:14:41;;;;;;;8.27;7.50;;;24.60;99.90;;;;;;5063605;28;20750;-48
2021/10/05 11:17:10;;;;;;;6.90;6.30;;;24.60;99.90;;;;;;5065058;28;20432;-46
2021/10/05 11:19:40;;;;;;;7.33;6.63;;;24.60;99.90;;;;;;5071350;28;20465;-50
2021/10/05 11:22:15;;;;;;;8.40;7.57;;;24.60;99.90;;;;;;5077185;28;20761;-49
2021/10/05 11:24:50;;;;;;;8.07;7.37;;;24.60;99.90;;;;;;5069782;28;20486;-48
2021/10/05 11:27:22;;;;;;;7.53;6.93;;;24.70;99.90;;;;;;5074939;28;20439;-50
2021/10/05 11:29:51;;;;;;;7.90;7.30;;;24.80;99.90;;;;;;5075628;28;20490;-50
2021/10/05 11:32:20;;;;;;;7.70;7.17;;;24.90;99.90;;;;;;5069468;28;20456;-50
2021/10/05 11:34:49;;;;;;;6.60;6.10;;;25.00;99.90;;;;;;5080661;28;20440;-47
2021/10/05 11:37:18;;;;;;;7.23;6.73;;;25.20;99.90;;;;;;5068471;28;20436;-45
2021/10/05 11:39:47;;;;;;;7.23;6.73;;;25.20;99.90;;;;;;5074839;28;20465;-48
2021/10/05 11:42:18;;;;;;;6.70;6.20;;;25.30;99.90;;;;;;5067560;28;20526;-44
2021/10/05 11:44:48;;;;;;;6.40;5.97;;;25.40;99.50;;;;;;5082466;28;20477;-44
2021/10/05 11:47:19;;;;;;;7.40;6.80;;;25.40;97.40;;;;;;5072488;28;20436;-53
2021/10/05 11:49:49;;;;;;;6.37;5.83;;;25.50;97.70;;;;;;5073690;28;20742;-45
2021/10/05 11:52:23;;;;;;;7.27;6.70;;;25.50;97.20;;;;;;5074142;28;20452;-51
2021/10/05 11:54:52;;;;;;;6.97;6.47;;;25.50;97.50;;;;;;5082327;28;20498;-47
2021/10/05 11:57:28;;;;;;;7.03;6.63;;;25.50;96.60;;;;;;5063499;28;20441;-47
2021/10/05 12:00:08;;;;;;;7.60;6.87;;;25.60;95.90;;;;;;5073412;28;20454;-46
2021/10/05 12:02:40;;;;;;;7.43;6.93;;;25.50;96.40;;;;;;5072807;28;20869;-45
2021/10/05 12:05:19;;;;;;;7.60;6.90;;;25.50;96.20;;;;;;5065199;28;20425;-51
2021/10/05 12:07:46;;;;;;;7.17;6.53;;;25.70;96.30;;;;;;5081130;28;20427;-49
2021/10/05 12:10:13;;;;;;;6.90;6.30;;;25.70;95.90;;;;;;5072177;28;20445;-47
2021/10/05 12:12:41;;;;;;;9.53;7.87;;;25.70;95.70;;;;;;5069659;28;20457;-51
2021/10/05 12:15:12;;;;;;;6.90;6.30;;;25.60;95.30;;;;;;5073130;28;20415;-48
2021/10/05 12:18:07;;;;;;;6.93;6.33;;;25.50;95.40;;;;;;5081223;28;20732;-47
2021/10/05 12:21:12;;;;;;;8.07;7.20;;;25.50;95.70;;;;;;5070898;28;20748;-45
2021/10/05 12:23:54;;;;;;;7.37;6.77;;;25.40;96.00;;;;;;5068431;28;20452;-51
2021/10/05 12:26:22;;;;;;;6.70;6.23;;;25.40;95.90;;;;;;5065277;28;20534;-44
2021/10/05 12:29:05;;;;;;;7.27;6.57;;;25.40;95.40;;;;;;5077659;28;20447;-45
2021/10/05 12:31:34;;;;;;;6.87;6.40;;;25.30;95.20;;;;;;5077507;28;20425;-49
2021/10/05 12:34:04;;;;;;;7.43;6.93;;;25.30;95.50;;;;;;5076949;28;20433;-50
2021/10/05 12:36:34;;;;;;;6.83;6.13;;;25.30;95.20;;;;;;5080056;28;20485;-51
2021/10/05 12:39:12;;;;;;;6.23;5.83;;;25.30;95.70;;;;;;5069398;28;20431;-49
2021/10/05 12:41:41;;;;;;;6.80;6.30;;;25.40;95.60;;;;;;5061412;28;20434;-48